Este sitio web usa cookies, puedes ver la política de cookies, aquí -
Cookies policy +
Arlat Virtual-Grupo de Aviacion Virtual


 INFORMACIÓN METAR y TAF
METAR FOR SABE
ADDS - METARS form results

(0907 UTC 30 May 2020)
Data provider http://aviationweather.gov/metar/data/
 
METAR text: SABE 300900Z 31001KT 0900 FG NSC 14/13 Q1013 TEMPO 0800 BCFG BKN015
Conditions at: SABE (AEROPARQUE(CIV/M, AR) observed 0900 UTC 30 May 2020
Temperature: 14.0°C (57°F)
Dewpoint: 13.0°C (55°F) [RH = 94%]
Pressure (altimeter): 29.91 inches Hg (1013.0 mb)
Winds: from the NW (310 degrees) at 1 MPH (1 knots; 0.5 m/s)
Visibility: 0.56 miles (0.90 km)
Ceiling: at least 12,000 feet AGL
Clouds: sky clear below 12,000 feet AGL
Weather: FG  (fog)

METAR text: SABE 300835Z 00000KT 3000 BR NSC 14/13 Q1013 NOSIG
Conditions at: SABE (AEROPARQUE(CIV/M, AR) observed 0835 UTC 30 May 2020
Temperature: 14.0°C (57°F)
Dewpoint: 13.0°C (55°F) [RH = 94%]
Pressure (altimeter): 29.91 inches Hg (1013.0 mb)
Winds: calm
Visibility: 1.86 miles (2.99 km)
Ceiling: at least 12,000 feet AGL
Clouds: sky clear below 12,000 feet AGL
Weather: BR  (mist)

METAR text: SABE 300820Z 00000KT 1000 R13/0700 FG NSC 14/13 Q1013 NOSIG
Conditions at: SABE (AEROPARQUE(CIV/M, AR) observed 0820 UTC 30 May 2020
Temperature: 14.0°C (57°F)
Dewpoint: 13.0°C (55°F) [RH = 94%]
Pressure (altimeter): 29.91 inches Hg (1013.0 mb)
Winds: calm
Visibility: 0.62 miles (1.00 km)
Ceiling: at least 12,000 feet AGL
Clouds: sky clear below 12,000 feet AGL
Weather: FG  (fog)

Forecast for: SABE (AEROPARQUE(CIV/M, AR)
Text: TAF SABE 300500Z 3006/3106 12005KT 4000 BR NSC TX19/3018Z TN08/3106Z
Forecast period: 0600 to 1300 UTC 30 May 2020
Forecast type: FROM: standard forecast or significant change
Winds: from the ESE (120 degrees) at 6 MPH (5 knots; 2.6 m/s)
Visibility: 2.49 miles (4.01 km)
Ceiling: unknown
Clouds: missing
Weather: BR  (mist)
Text: TEMPO 3006/3012 VRB03KT 1500 MIFGBR
Forecast period: 0600 to 1200 UTC 30 May 2020
Forecast type: TEMPORARY: The following changes expected for less than half the time period
Winds: variable direction winds at 3 MPH (3 knots; 1.5 m/s)
Visibility: 0.93 miles (1.50 km)
Ceiling: unknown
Clouds: missing
Weather: MIFG BR  (shallow fog, mist)
Text: BECMG 3013/3015 25015KT 9999 SCT035 OVC100
Forecast period: 1300 to 1800 UTC 30 May 2020
Forecast type: BECOMING: Conditions expected to become as follows by 1500 UTC 30 May 2020
Winds: from the WSW (250 degrees) at 17 MPH (15 knots; 7.7 m/s)
Visibility: 6 or more miles 10+ km)
Ceiling: 10000 feet AGL
Clouds: scattered clouds at 3500 feet AGL
overcast cloud deck at 10000 feet AGL
Weather: BR  (mist)
Text: BECMG 3018/3021 25015G30KT
Forecast period: 1800 UTC 30 May 2020 to 0600 UTC 31 May 2020
Forecast type: BECOMING: Conditions expected to become as follows by 2100 UTC 30 May 2020
Winds: from the WSW (250 degrees) at 17 MPH (15 knots; 7.7 m/s)
gusting to 34 MPH (30 knots; 15.4 m/s)
Visibility: 6 or more miles 10+ km)
Ceiling: 10000 feet AGL
Clouds: scattered clouds at 3500 feet AGL
overcast cloud deck at 10000 feet AGL
Weather: BR  (mist)
Text: TEMPO 3017/3023 25020G30KT 6000 DZRA BKN015 OVC040
Forecast period: 1700 to 2300 UTC 30 May 2020
Forecast type: TEMPORARY: The following changes expected for less than half the time period
Winds: from the WSW (250 degrees) at 23 MPH (20 knots; 10.3 m/s)
gusting to 34 MPH (30 knots; 15.4 m/s)
Visibility: 4 miles (6 km)
Ceiling: 1500 feet AGL
Clouds: broken clouds at 1500 feet AGL
overcast cloud deck at 4000 feet AGL
Weather: DZ RA  (moderate drizzle, moderate rain)

 MAPA DE AEROPUERTO

 INFORMACIÓN DE PISTA
Pista 13 Longitud 6890 ft Ancho 131 ft
Elevación 18 ft Umbral desplazado 0 ft Rumbo de pista 124
Pista 31 Longitud 6890 ft Ancho 131 ft
Elevación 15 ft Umbral desplazado 417 ft Rumbo de pista 304

 FRECUANCIAS DEL AEROPUERTO
Tipo APP Nombre APP Frecuencia 120.6 MHZ
Tipo ATIS Nombre ATIS Frecuencia 127.6 MHZ
Tipo CLD Nombre CLNC DEL Frecuencia 129.3 MHZ
Tipo GND Nombre GND Frecuencia 121.9 MHZ
Tipo TWR Nombre TWR Frecuencia 118.85 MHZ

 RADIO AYUDAS DEL AEROPUERTO
Tipo NDB Nombre Aeroparque Jorge Newbery Frecuencia 260 KHZ